Time;durP1;ratioP1;P1;durP2;ratioP2;P2;SDS_P1;SDS_P2;PMS_P1;PMS_P2;Temp;Humidity;BMP_temperature;BMP_pressure;BME280_temperature;BME280_humidity;BME280_pressure;Samples;Min_cycle;Max_cycle;Signal;HPM_P1;HPM_P2
2021/12/15 00:01:58;;;;;;;28.27;13.43;;;;;;;;;;5029467;28;20239;-78
2021/12/15 00:04:26;;;;;;;24.73;12.13;;;;;;;;;;5026628;28;20196;-78
2021/12/15 00:06:53;;;;;;;25.43;12.33;;;;;;;;;;5032111;28;20284;-78
2021/12/15 00:09:21;;;;;;;23.63;12.20;;;;;;;;;;5024139;28;20284;-78
2021/12/15 00:11:48;;;;;;;20.67;11.80;;;;;;;;;;5019004;28;20520;-78
2021/12/15 00:14:18;;;;;;;20.60;11.37;;;;;;;;;;5030970;28;20283;-78
2021/12/15 00:16:46;;;;;;;17.63;11.23;;;;;;;;;;5021752;28;20270;-78
2021/12/15 00:19:13;;;;;;;17.87;10.97;;;;;;;;;;5024499;28;20291;-78
2021/12/15 00:21:41;;;;;;;18.27;10.83;;;;;;;;;;5012823;28;20293;-78
2021/12/15 00:24:09;;;;;;;18.20;10.90;;;;;;;;;;5025122;28;20633;-78
2021/12/15 00:26:37;;;;;;;17.27;10.40;;;;;;;;;;5023142;28;20305;-78
2021/12/15 00:29:05;;;;;;;18.43;11.00;;;;;;;;;;5012164;28;20288;-78
2021/12/15 00:31:34;;;;;;;17.43;11.23;;;;;;;;;;5016573;28;20207;-78
2021/12/15 00:34:03;;;;;;;17.87;10.77;;;;;;;;;;5031147;28;20287;-78
2021/12/15 00:36:30;;;;;;;17.63;11.53;;;;;;;;;;5031232;28;20613;-78
2021/12/15 00:38:58;;;;;;;16.63;11.40;;;;;;;;;;5031771;28;20287;-78
2021/12/15 00:41:25;;;;;;;21.10;11.73;;;;;;;;;;5031278;28;20290;-78
2021/12/15 00:43:52;;;;;;;18.27;10.90;;;;;;;;;;5031740;28;20288;-78
2021/12/15 00:46:20;;;;;;;16.97;11.77;;;;;;;;;;5031453;28;20206;-78
2021/12/15 00:48:49;;;;;;;20.57;12.43;;;;;;;;;;5031787;28;20208;-78
2021/12/15 00:51:16;;;;;;;20.00;12.93;;;;;;;;;;5031128;28;20204;-78
2021/12/15 00:53:44;;;;;;;19.50;13.30;;;;;;;;;;5027144;28;20200;-78
2021/12/15 00:56:11;;;;;;;20.30;12.80;;;;;;;;;;5024547;28;20319;-78
2021/12/15 00:58:38;;;;;;;21.93;13.87;;;;;;;;;;5012618;28;20288;-78
2021/12/15 01:01:06;;;;;;;21.00;13.53;;;;;;;;;;5020349;28;20283;-78
2021/12/15 01:03:33;;;;;;;21.37;13.97;;;;;;;;;;5022469;28;20295;-78
2021/12/15 01:06:07;;;;;;;20.10;13.77;;;;;;;;;;5019584;28;20211;-78
2021/12/15 01:08:38;;;;;;;19.80;13.10;;;;;;;;;;5031183;28;20204;-78
2021/12/15 01:11:12;;;;;;;21.67;13.63;;;;;;;;;;5030974;28;20667;-78
2021/12/15 01:21:57;;;;;;;22.30;13.57;;;;;;;;;;5023636;28;20196;-78
2021/12/15 01:24:25;;;;;;;22.57;13.67;;;;;;;;;;5018589;28;20200;-78
2021/12/15 01:26:52;;;;;;;22.43;13.50;;;;;;;;;;5028784;28;20231;-78
2021/12/15 01:29:19;;;;;;;22.87;13.73;;;;;;;;;;5013904;28;20288;-78
2021/12/15 01:31:47;;;;;;;22.27;13.57;;;;;;;;;;5027287;28;20292;-78
2021/12/15 01:34:15;;;;;;;21.97;13.43;;;;;;;;;;5034476;28;20231;-78
2021/12/15 01:36:42;;;;;;;20.60;13.97;;;;;;;;;;5015046;28;20308;-78
2021/12/15 01:39:10;;;;;;;23.67;14.50;;;;;;;;;;5014787;28;20767;-78
2021/12/15 01:41:38;;;;;;;25.77;14.67;;;;;;;;;;5015379;28;20293;-78
2021/12/15 01:46:54;;;;;;;24.63;14.43;;;;;;;;;;5027405;28;20359;-78
2021/12/15 01:49:24;;;;;;;22.83;14.57;;;;;;;;;;5015336;28;20304;-78
2021/12/15 01:51:51;;;;;;;23.27;14.27;;;;;;;;;;5024561;28;20258;-78
2021/12/15 01:54:20;;;;;;;24.63;14.70;;;;;;;;;;5034395;28;20197;-78
2021/12/15 01:56:48;;;;;;;24.37;14.50;;;;;;;;;;5030334;28;20398;-78
2021/12/15 01:59:16;;;;;;;23.27;13.93;;;;;;;;;;5033649;28;20615;-78
2021/12/15 02:01:44;;;;;;;24.20;15.10;;;;;;;;;;5033460;28;20280;-78
2021/12/15 02:04:11;;;;;;;26.07;15.03;;;;;;;;;;5034511;28;20283;-78
2021/12/15 02:06:42;;;;;;;24.27;14.47;;;;;;;;;;5034820;28;20628;-78
2021/12/15 02:09:09;;;;;;;24.70;14.67;;;;;;;;;;5034397;28;20200;-78
2021/12/15 02:11:38;;;;;;;26.50;16.27;;;;;;;;;;5028700;28;20263;-78
2021/12/15 02:14:05;;;;;;;25.60;16.07;;;;;;;;;;5031224;28;20196;-79
2021/12/15 02:16:32;;;;;;;26.90;15.43;;;;;;;;;;5034720;28;20363;-78
2021/12/15 02:19:00;;;;;;;28.07;15.73;;;;;;;;;;5034441;28;20290;-78
2021/12/15 02:21:28;;;;;;;25.00;15.10;;;;;;;;;;5034035;28;20197;-78
2021/12/15 02:23:58;;;;;;;25.70;15.70;;;;;;;;;;5034309;28;20284;-78
2021/12/15 02:26:33;;;;;;;24.90;15.70;;;;;;;;;;5034351;28;20247;-78
2021/12/15 02:29:01;;;;;;;28.77;17.07;;;;;;;;;;5014455;28;20200;-78
2021/12/15 02:31:40;;;;;;;29.03;17.90;;;;;;;;;;5032514;28;20211;-78
2021/12/15 02:34:20;;;;;;;26.90;16.20;;;;;;;;;;5033123;28;20234;-78
2021/12/15 02:37:16;;;;;;;27.30;15.97;;;;;;;;;;5033639;28;20216;-78
2021/12/15 02:39:43;;;;;;;28.43;16.17;;;;;;;;;;5023827;28;20201;-78
2021/12/15 02:42:10;;;;;;;26.40;17.00;;;;;;;;;;5029991;28;20270;-78
2021/12/15 02:44:41;;;;;;;25.50;15.23;;;;;;;;;;5034169;28;20292;-78
2021/12/15 02:47:08;;;;;;;30.83;18.03;;;;;;;;;;5024382;28;20240;-78
2021/12/15 02:49:36;;;;;;;28.17;17.10;;;;;;;;;;5014373;28;20220;-78
2021/12/15 02:52:06;;;;;;;27.00;17.50;;;;;;;;;;5013443;28;20204;-78
2021/12/15 02:54:33;;;;;;;30.87;17.93;;;;;;;;;;5020389;28;20292;-78
2021/12/15 02:57:06;;;;;;;25.77;16.87;;;;;;;;;;5030401;28;20266;-78
2021/12/15 02:59:42;;;;;;;28.27;17.20;;;;;;;;;;5031201;28;20212;-78
2021/12/15 03:02:19;;;;;;;29.10;17.13;;;;;;;;;;5022811;28;20200;-78
2021/12/15 03:04:50;;;;;;;27.33;17.03;;;;;;;;;;5018346;28;20243;-78
2021/12/15 03:07:29;;;;;;;25.70;16.40;;;;;;;;;;5013637;28;20657;-78
2021/12/15 03:18:06;;;;;;;29.23;18.43;;;;;;;;;;5018980;28;20283;-78
2021/12/15 03:20:35;;;;;;;30.27;18.50;;;;;;;;;;5032324;28;20272;-78
2021/12/15 03:23:05;;;;;;;28.93;17.57;;;;;;;;;;5021708;28;20197;-78
2021/12/15 03:25:32;;;;;;;28.33;17.17;;;;;;;;;;5013652;28;20235;-78
2021/12/15 03:33:54;;;;;;;28.30;16.47;;;;;;;;;;5017902;28;20200;-78
2021/12/15 03:36:35;;;;;;;26.03;16.97;;;;;;;;;;5012870;28;20291;-78
2021/12/15 03:39:05;;;;;;;27.03;16.70;;;;;;;;;;5015627;28;20201;-78
2021/12/15 03:41:32;;;;;;;29.50;17.77;;;;;;;;;;5033050;28;20287;-78
2021/12/15 03:44:00;;;;;;;26.37;16.37;;;;;;;;;;5032819;28;20204;-78
2021/12/15 03:46:28;;;;;;;27.10;15.47;;;;;;;;;;5016324;28;20219;-78
2021/12/15 03:48:55;;;;;;;30.37;17.10;;;;;;;;;;5025694;28;20242;-78
2021/12/15 03:51:22;;;;;;;29.03;16.90;;;;;;;;;;5026481;28;20279;-78
2021/12/15 03:53:50;;;;;;;25.07;15.43;;;;;;;;;;5032478;28;20684;-77
2021/12/15 03:56:18;;;;;;;26.73;16.07;;;;;;;;;;5031204;28;20243;-77
2021/12/15 03:58:46;;;;;;;25.77;15.53;;;;;;;;;;5031472;28;20259;-78
2021/12/15 04:01:16;;;;;;;25.30;15.73;;;;;;;;;;5032200;28;20563;-78
2021/12/15 04:03:44;;;;;;;25.37;14.93;;;;;;;;;;5018460;28;20201;-77
2021/12/15 04:06:12;;;;;;;25.53;15.97;;;;;;;;;;5028193;28;20232;-78
2021/12/15 04:08:40;;;;;;;27.13;16.30;;;;;;;;;;5031433;28;20287;-78
2021/12/15 04:11:09;;;;;;;24.83;15.70;;;;;;;;;;5031908;28;20212;-78
2021/12/15 04:13:38;;;;;;;31.27;18.17;;;;;;;;;;5022368;28;20562;-77
2021/12/15 04:16:08;;;;;;;27.50;17.00;;;;;;;;;;5032428;28;20342;-77
2021/12/15 04:18:37;;;;;;;31.13;19.27;;;;;;;;;;5031660;28;20231;-78
2021/12/15 04:21:05;;;;;;;31.77;18.50;;;;;;;;;;5031952;28;20204;-77
2021/12/15 04:23:32;;;;;;;29.17;17.90;;;;;;;;;;5032078;28;20288;-77
2021/12/15 04:26:00;;;;;;;29.07;17.87;;;;;;;;;;5031898;28;20291;-77
2021/12/15 04:28:31;;;;;;;28.47;18.13;;;;;;;;;;5017950;28;20320;-77
2021/12/15 04:31:01;;;;;;;26.30;16.43;;;;;;;;;;5012067;28;20292;-78
2021/12/15 04:33:31;;;;;;;27.20;16.40;;;;;;;;;;5011776;28;20675;-77
2021/12/15 04:35:58;;;;;;;26.97;16.50;;;;;;;;;;5012557;28;20197;-77
2021/12/15 04:38:27;;;;;;;27.20;15.07;;;;;;;;;;5020139;28;20773;-77
2021/12/15 04:40:55;;;;;;;23.33;14.60;;;;;;;;;;5025631;28;20224;-77
2021/12/15 04:43:22;;;;;;;24.03;15.50;;;;;;;;;;5031376;28;20288;-77
2021/12/15 04:45:49;;;;;;;25.67;15.43;;;;;;;;;;5027616;28;20243;-78
2021/12/15 04:48:18;;;;;;;29.33;16.87;;;;;;;;;;5030968;28;20236;-77
2021/12/15 04:50:46;;;;;;;27.63;15.97;;;;;;;;;;5030105;28;20258;-77
2021/12/15 04:53:13;;;;;;;26.47;15.30;;;;;;;;;;5031877;28;20247;-77
2021/12/15 04:55:41;;;;;;;27.23;16.33;;;;;;;;;;5025243;28;20319;-77
2021/12/15 04:58:09;;;;;;;27.50;16.50;;;;;;;;;;5030895;28;20306;-77
2021/12/15 05:00:38;;;;;;;24.50;14.87;;;;;;;;;;5027143;28;20739;-77
2021/12/15 05:03:06;;;;;;;27.13;15.73;;;;;;;;;;5018058;28;20231;-77
2021/12/15 05:05:35;;;;;;;28.77;16.20;;;;;;;;;;5031276;28;20207;-77
2021/12/15 05:08:03;;;;;;;28.03;16.27;;;;;;;;;;5029243;28;20196;-77
2021/12/15 05:10:31;;;;;;;26.87;15.53;;;;;;;;;;5012873;28;20292;-77
2021/12/15 05:12:58;;;;;;;27.43;15.93;;;;;;;;;;5016976;28;20283;-77
2021/12/15 05:15:26;;;;;;;24.67;14.83;;;;;;;;;;5012272;28;20288;-77
2021/12/15 05:17:53;;;;;;;23.93;14.37;;;;;;;;;;5030829;28;20311;-78
2021/12/15 05:20:22;;;;;;;25.83;14.77;;;;;;;;;;5031814;28;20671;-78
2021/12/15 05:22:51;;;;;;;26.07;15.37;;;;;;;;;;5021971;28;20232;-77
2021/12/15 05:25:18;;;;;;;24.00;15.03;;;;;;;;;;5024514;28;20208;-77
2021/12/15 05:27:46;;;;;;;27.00;15.77;;;;;;;;;;5031180;28;20224;-77
2021/12/15 05:30:15;;;;;;;25.47;15.40;;;;;;;;;;5031668;28;20236;-77
2021/12/15 05:32:42;;;;;;;27.60;14.93;;;;;;;;;;5015386;28;20645;-77
2021/12/15 05:35:15;;;;;;;27.40;16.63;;;;;;;;;;5024558;28;20223;-77
2021/12/15 05:37:42;;;;;;;28.73;16.10;;;;;;;;;;5030582;28;20303;-77
2021/12/15 05:40:11;;;;;;;24.00;14.77;;;;;;;;;;5026986;28;20286;-77
2021/12/15 05:42:39;;;;;;;23.20;14.47;;;;;;;;;;5013499;28;20295;-77
2021/12/15 05:45:06;;;;;;;23.67;14.37;;;;;;;;;;5030765;28;20295;-77
2021/12/15 05:47:34;;;;;;;22.23;14.07;;;;;;;;;;5031612;28;20311;-77
2021/12/15 05:50:01;;;;;;;26.17;14.50;;;;;;;;;;5014659;28;20212;-77
2021/12/15 05:52:30;;;;;;;24.97;14.50;;;;;;;;;;5031255;28;20231;-77
2021/12/15 05:54:58;;;;;;;26.33;14.97;;;;;;;;;;5030891;28;20204;-78
2021/12/15 05:57:28;;;;;;;22.83;14.20;;;;;;;;;;5030738;28;20302;-78
2021/12/15 05:59:55;;;;;;;25.03;14.27;;;;;;;;;;5029837;28;20284;-78
2021/12/15 06:02:22;;;;;;;24.47;14.23;;;;;;;;;;5017203;28;20287;-77
2021/12/15 06:04:49;;;;;;;23.83;14.43;;;;;;;;;;5024788;28;20288;-78
2021/12/15 06:07:16;;;;;;;27.17;14.00;;;;;;;;;;5029393;28;20299;-79
2021/12/15 06:09:44;;;;;;;23.13;14.43;;;;;;;;;;5014605;28;20301;-78
2021/12/15 06:12:11;;;;;;;22.80;13.90;;;;;;;;;;5011260;28;20301;-78
2021/12/15 06:14:42;;;;;;;22.23;13.47;;;;;;;;;;5029309;28;20911;-79
2021/12/15 06:17:11;;;;;;;20.43;13.23;;;;;;;;;;5032350;28;20207;-79
2021/12/15 06:19:38;;;;;;;21.60;12.93;;;;;;;;;;5034178;28;20737;-80
2021/12/15 06:22:06;;;;;;;21.57;13.33;;;;;;;;;;5026885;28;20288;-79
2021/12/15 06:24:36;;;;;;;21.57;12.77;;;;;;;;;;5014404;28;20255;-79
2021/12/15 06:27:09;;;;;;;22.53;13.67;;;;;;;;;;5014089;28;20197;-78
2021/12/15 06:29:37;;;;;;;20.80;13.23;;;;;;;;;;5019940;28;20698;-78
2021/12/15 06:32:06;;;;;;;23.00;13.77;;;;;;;;;;5020907;28;20231;-78
2021/12/15 06:34:33;;;;;;;50.43;32.43;;;;;;;;;;5029837;28;20291;-79
2021/12/15 06:37:00;;;;;;;39.50;25.77;;;;;;;;;;5024063;28;20292;-78
2021/12/15 06:39:27;;;;;;;22.43;13.23;;;;;;;;;;5017744;28;20307;-78
2021/12/15 06:41:55;;;;;;;27.20;16.60;;;;;;;;;;5024782;28;20201;-78
2021/12/15 06:44:22;;;;;;;23.10;15.13;;;;;;;;;;5025094;28;20215;-78
2021/12/15 07:00:33;;;;;;;61.60;48.87;;;;;;;;;;5029770;28;20215;-78
2021/12/15 07:03:01;;;;;;;22.10;13.50;;;;;;;;;;5023610;28;20201;-78
2021/12/15 07:05:30;;;;;;;25.27;15.70;;;;;;;;;;5024801;28;20237;-78
2021/12/15 07:07:58;;;;;;;24.03;17.00;;;;;;;;;;5021355;28;20235;-78
2021/12/15 07:10:27;;;;;;;23.07;16.00;;;;;;;;;;5020030;28;20291;-78
2021/12/15 07:12:54;;;;;;;20.60;13.57;;;;;;;;;;5024272;28;20283;-78
2021/12/15 07:15:22;;;;;;;21.97;14.77;;;;;;;;;;5027080;28;20283;-78
2021/12/15 07:17:51;;;;;;;24.97;15.73;;;;;;;;;;5028598;28;20288;-77
2021/12/15 07:20:33;;;;;;;23.93;15.87;;;;;;;;;;5026058;28;20204;-78
2021/12/15 07:23:03;;;;;;;25.40;15.73;;;;;;;;;;5021067;28;20211;-78
2021/12/15 07:25:31;;;;;;;23.47;13.90;;;;;;;;;;5022685;28;20319;-78
2021/12/15 07:27:59;;;;;;;25.17;15.23;;;;;;;;;;5027782;28;20211;-78
2021/12/15 07:30:27;;;;;;;23.77;14.53;;;;;;;;;;5018413;28;20253;-78
2021/12/15 07:32:54;;;;;;;24.43;15.77;;;;;;;;;;5025233;28;20657;-78
2021/12/15 07:35:22;;;;;;;26.03;17.50;;;;;;;;;;5027576;28;20292;-78
2021/12/15 07:37:49;;;;;;;20.97;13.10;;;;;;;;;;5027487;28;20585;-79
2021/12/15 07:40:21;;;;;;;22.70;13.57;;;;;;;;;;5021678;28;20299;-78
2021/12/15 07:42:57;;;;;;;23.07;13.87;;;;;;;;;;5017164;28;20239;-79
2021/12/15 07:45:26;;;;;;;21.90;12.73;;;;;;;;;;5020758;28;20209;-76
2021/12/15 07:47:54;;;;;;;25.57;14.27;;;;;;;;;;5020246;28;20216;-75
2021/12/15 07:50:22;;;;;;;23.33;13.77;;;;;;;;;;5011927;28;20202;-75
2021/12/15 07:52:49;;;;;;;24.97;14.83;;;;;;;;;;5025230;28;20239;-76
2021/12/15 07:55:17;;;;;;;24.30;14.40;;;;;;;;;;5029697;28;20323;-76
2021/12/15 07:57:46;;;;;;;26.17;15.87;;;;;;;;;;5015571;28;20295;-76
2021/12/15 08:00:14;;;;;;;22.03;13.80;;;;;;;;;;5025220;28;20308;-76
2021/12/15 08:02:41;;;;;;;27.07;17.03;;;;;;;;;;5028606;28;21568;-76
2021/12/15 08:05:09;;;;;;;23.60;14.93;;;;;;;;;;5024383;28;20446;-76
2021/12/15 08:07:37;;;;;;;25.30;14.60;;;;;;;;;;5026841;28;20739;-76
2021/12/15 08:10:06;;;;;;;27.97;15.13;;;;;;;;;;5025324;28;20284;-75
2021/12/15 08:12:33;;;;;;;28.80;15.70;;;;;;;;;;5021259;28;20244;-76
2021/12/15 08:15:02;;;;;;;25.27;15.10;;;;;;;;;;5027186;28;20193;-75
2021/12/15 08:17:29;;;;;;;24.37;14.73;;;;;;;;;;5019788;28;20292;-76
2021/12/15 08:19:56;;;;;;;25.87;15.40;;;;;;;;;;5022705;28;20299;-76
2021/12/15 08:22:24;;;;;;;26.63;16.47;;;;;;;;;;5016661;28;20654;-76
2021/12/15 08:24:51;;;;;;;27.33;15.73;;;;;;;;;;5027167;28;20640;-76
2021/12/15 08:27:18;;;;;;;24.27;14.77;;;;;;;;;;5017398;28;20303;-76
2021/12/15 08:29:45;;;;;;;32.13;18.60;;;;;;;;;;5021570;28;20239;-76
2021/12/15 08:32:14;;;;;;;26.23;15.10;;;;;;;;;;5019553;28;20285;-76
2021/12/15 08:34:41;;;;;;;32.07;19.17;;;;;;;;;;5027440;28;20283;-76
2021/12/15 08:37:13;;;;;;;26.90;15.57;;;;;;;;;;5027345;28;20284;-76
2021/12/15 08:39:40;;;;;;;27.90;17.57;;;;;;;;;;5015338;28;20250;-76
2021/12/15 08:42:08;;;;;;;27.00;15.27;;;;;;;;;;5018297;28;20243;-76
2021/12/15 08:44:35;;;;;;;22.07;13.23;;;;;;;;;;5024529;28;20276;-76
2021/12/15 08:47:02;;;;;;;24.40;12.97;;;;;;;;;;5024308;28;20243;-76
2021/12/15 08:49:31;;;;;;;22.13;13.23;;;;;;;;;;5026008;28;20201;-76
2021/12/15 08:51:58;;;;;;;26.07;15.43;;;;;;;;;;5017663;28;20299;-76
2021/12/15 08:54:26;;;;;;;27.23;16.47;;;;;;;;;;5023426;28;20723;-76
2021/12/15 08:56:55;;;;;;;76.87;42.30;;;;;;;;;;5018765;28;20278;-76
2021/12/15 08:59:22;;;;;;;28.67;16.57;;;;;;;;;;5018909;28;20221;-76
2021/12/15 09:01:50;;;;;;;26.57;15.77;;;;;;;;;;5025580;28;20196;-76
2021/12/15 09:04:17;;;;;;;26.07;14.73;;;;;;;;;;5023401;28;20284;-76
2021/12/15 09:06:46;;;;;;;23.40;13.97;;;;;;;;;;5020269;28;20315;-76
2021/12/15 09:09:15;;;;;;;64.50;46.67;;;;;;;;;;5022346;28;20255;-76
2021/12/15 09:11:43;;;;;;;27.33;17.90;;;;;;;;;;5019567;28;20211;-76
2021/12/15 09:14:11;;;;;;;25.83;16.37;;;;;;;;;;5030789;28;20200;-75
2021/12/15 09:16:39;;;;;;;27.23;15.57;;;;;;;;;;5016719;28;20197;-76
2021/12/15 09:19:08;;;;;;;22.30;14.50;;;;;;;;;;5023860;28;20308;-76
2021/12/15 09:21:37;;;;;;;25.73;16.50;;;;;;;;;;5020380;28;20308;-76
2021/12/15 09:24:08;;;;;;;22.83;13.63;;;;;;;;;;5022304;28;20342;-75
2021/12/15 09:26:36;;;;;;;23.60;14.37;;;;;;;;;;5017004;28;20291;-75
2021/12/15 09:29:05;;;;;;;22.73;12.93;;;;;;;;;;5018884;28;20275;-76
2021/12/15 09:31:32;;;;;;;21.13;13.03;;;;;;;;;;5020801;28;20231;-75
2021/12/15 09:33:59;;;;;;;29.40;21.87;;;;;;;;;;5025582;28;20287;-75
2021/12/15 09:36:27;;;;;;;21.60;12.87;;;;;;;;;;5024941;28;20207;-75
2021/12/15 09:38:56;;;;;;;21.00;13.27;;;;;;;;;;5028276;28;20315;-76
2021/12/15 09:41:25;;;;;;;23.87;16.07;;;;;;;;;;5016114;28;20701;-76
2021/12/15 09:43:55;;;;;;;20.90;12.67;;;;;;;;;;5017886;28;20223;-76
2021/12/15 09:46:36;;;;;;;19.53;12.40;;;;;;;;;;5016332;28;20209;-75
2021/12/15 09:57:47;;;;;;;20.13;12.70;;;;;;;;;;5029766;28;20239;-76
2021/12/15 10:03:04;;;;;;;22.70;13.70;;;;;;;;;;5028101;28;20726;-76
2021/12/15 10:05:45;;;;;;;23.83;14.53;;;;;;;;;;5026310;28;20196;-75
2021/12/15 10:11:15;;;;;;;21.30;13.40;;;;;;;;;;4975009;28;20190;-78
2021/12/15 10:19:30;;;;;;;21.03;13.40;;;;;;;;;;4934742;29;20224;-79
2021/12/15 10:21:59;;;;;;;22.30;14.67;;;;;;;;;;4933917;29;20236;-79
2021/12/15 10:24:28;;;;;;;21.03;13.90;;;;;;;;;;4930233;29;20247;-79
2021/12/15 10:26:56;;;;;;;21.20;13.87;;;;;;;;;;4930408;29;20251;-79
2021/12/15 10:29:25;;;;;;;21.30;14.57;;;;;;;;;;4930827;29;20228;-78
2021/12/15 10:31:58;;;;;;;20.30;13.83;;;;;;;;;;4933823;29;20196;-78
2021/12/15 10:34:25;;;;;;;22.67;16.20;;;;;;;;;;4929739;29;20755;-78
2021/12/15 10:36:52;;;;;;;20.67;14.07;;;;;;;;;;4932803;29;20226;-78
2021/12/15 10:39:22;;;;;;;18.83;13.63;;;;;;;;;;4930806;29;20299;-78
2021/12/15 10:41:49;;;;;;;22.67;16.63;;;;;;;;;;4934053;29;20207;-78
2021/12/15 10:44:21;;;;;;;18.30;12.80;;;;;;;;;;4930182;29;20227;-78
2021/12/15 10:46:51;;;;;;;19.43;12.57;;;;;;;;;;4928262;29;20204;-78
2021/12/15 10:49:19;;;;;;;19.47;11.93;;;;;;;;;;4989267;28;20293;-79
2021/12/15 10:51:48;;;;;;;21.70;16.27;;;;;;;;;;4990832;28;20308;-76
2021/12/15 10:54:16;;;;;;;18.60;11.97;;;;;;;;;;5019606;28;20224;-76
2021/12/15 10:56:50;;;;;;;20.73;14.43;;;;;;;;;;5027764;28;20319;-76
2021/12/15 10:59:18;;;;;;;26.60;18.87;;;;;;;;;;5022419;28;20259;-76
2021/12/15 11:02:05;;;;;;;22.50;13.83;;;;;;;;;;5029599;28;20201;-75
2021/12/15 11:04:35;;;;;;;27.97;19.40;;;;;;;;;;5022793;28;20197;-76
2021/12/15 11:07:04;;;;;;;19.83;12.47;;;;;;;;;;5016254;28;20307;-76
2021/12/15 11:09:33;;;;;;;19.10;12.17;;;;;;;;;;5026674;28;20291;-76
2021/12/15 11:12:02;;;;;;;18.57;12.97;;;;;;;;;;5017234;28;20287;-76
2021/12/15 11:14:31;;;;;;;17.70;12.23;;;;;;;;;;5026551;28;20284;-76
2021/12/15 11:17:08;;;;;;;19.37;12.10;;;;;;;;;;5023334;28;20700;-76
2021/12/15 11:19:40;;;;;;;24.27;17.67;;;;;;;;;;5025912;28;20303;-76
2021/12/15 11:22:22;;;;;;;18.00;11.10;;;;;;;;;;5020892;28;20200;-76
2021/12/15 11:24:49;;;;;;;19.20;13.33;;;;;;;;;;5020825;28;20287;-76
2021/12/15 11:27:16;;;;;;;18.30;12.33;;;;;;;;;;5027359;28;20296;-76
2021/12/15 11:29:44;;;;;;;18.00;12.43;;;;;;;;;;5029162;28;20280;-76
2021/12/15 11:32:26;;;;;;;18.07;12.00;;;;;;;;;;5017984;28;20292;-78
2021/12/15 11:35:03;;;;;;;17.10;11.87;;;;;;;;;;5012694;28;20710;-77
2021/12/15 11:37:47;;;;;;;22.27;15.80;;;;;;;;;;5013699;28;20620;-78
2021/12/15 11:40:14;;;;;;;18.43;12.50;;;;;;;;;;5012716;28;20767;-79
2021/12/15 11:42:43;;;;;;;25.10;18.73;;;;;;;;;;5024903;28;20307;-78
2021/12/15 11:45:13;;;;;;;18.00;11.97;;;;;;;;;;5032739;28;20287;-77
2021/12/15 11:47:40;;;;;;;17.63;12.80;;;;;;;;;;5021309;28;20240;-77
2021/12/15 11:50:10;;;;;;;17.30;12.03;;;;;;;;;;5026242;28;20199;-75
2021/12/15 11:52:42;;;;;;;17.73;12.10;;;;;;;;;;5031270;28;20306;-76
2021/12/15 11:55:22;;;;;;;17.50;12.50;;;;;;;;;;5030643;28;20295;-78
2021/12/15 11:57:49;;;;;;;17.03;12.67;;;;;;;;;;5026921;28;20232;-79
2021/12/15 12:00:18;;;;;;;17.50;12.53;;;;;;;;;;5035897;28;20256;-79
2021/12/15 12:02:47;;;;;;;17.83;12.77;;;;;;;;;;5027746;28;21703;-78
2021/12/15 12:05:19;;;;;;;20.60;14.67;;;;;;;;;;5014767;28;20208;-79
2021/12/15 12:07:48;;;;;;;16.10;12.40;;;;;;;;;;5014464;28;20212;-79
2021/12/15 12:10:18;;;;;;;19.07;14.00;;;;;;;;;;5029510;28;20614;-79
2021/12/15 12:12:52;;;;;;;17.33;12.37;;;;;;;;;;5027273;28;20204;-79
2021/12/15 12:15:20;;;;;;;17.80;12.67;;;;;;;;;;5031068;28;20208;-78
2021/12/15 12:17:49;;;;;;;19.27;12.60;;;;;;;;;;5029996;28;20295;-78
2021/12/15 12:20:19;;;;;;;18.53;13.47;;;;;;;;;;5025482;28;20213;-78
2021/12/15 12:22:47;;;;;;;17.93;12.30;;;;;;;;;;5011841;28;20667;-78
2021/12/15 12:25:15;;;;;;;17.70;12.73;;;;;;;;;;5019423;28;20196;-78
2021/12/15 12:27:43;;;;;;;17.90;12.27;;;;;;;;;;5031769;28;20291;-77
2021/12/15 12:30:13;;;;;;;18.00;12.93;;;;;;;;;;5021601;28;20288;-78
2021/12/15 12:32:40;;;;;;;17.63;12.87;;;;;;;;;;5030682;28;20227;-78
2021/12/15 12:35:09;;;;;;;16.70;11.97;;;;;;;;;;5022225;28;20293;-76
2021/12/15 12:37:38;;;;;;;21.47;15.73;;;;;;;;;;5022057;28;20672;-77
2021/12/15 12:40:17;;;;;;;17.87;13.20;;;;;;;;;;5022336;28;20316;-76
2021/12/15 12:42:44;;;;;;;18.23;13.07;;;;;;;;;;5022485;28;20599;-76
2021/12/15 12:45:23;;;;;;;19.77;14.40;;;;;;;;;;5021971;28;20834;-76
2021/12/15 12:48:12;;;;;;;19.97;15.20;;;;;;;;;;5021368;28;20212;-78
2021/12/15 12:59:26;;;;;;;19.67;14.40;;;;;;;;;;5024028;28;20683;-79
2021/12/15 13:01:54;;;;;;;19.23;13.53;;;;;;;;;;5023641;28;20200;-77
2021/12/15 13:04:21;;;;;;;19.37;13.73;;;;;;;;;;5023267;28;20273;-77
2021/12/15 13:06:49;;;;;;;19.13;13.40;;;;;;;;;;5021695;28;20295;-77
2021/12/15 13:09:19;;;;;;;23.07;14.93;;;;;;;;;;5022137;28;20267;-78
2021/12/15 13:11:50;;;;;;;21.60;16.03;;;;;;;;;;5029326;28;20228;-78
2021/12/15 13:14:19;;;;;;;23.23;16.53;;;;;;;;;;5016459;28;20751;-79
2021/12/15 13:16:48;;;;;;;21.77;14.60;;;;;;;;;;5024507;28;20225;-79
2021/12/15 13:19:18;;;;;;;21.30;15.30;;;;;;;;;;5024541;28;20197;-81
2021/12/15 13:21:54;;;;;;;23.03;16.03;;;;;;;;;;5026454;28;20213;-81
2021/12/15 13:30:26;;;;;;;20.37;14.93;;;;;;;;;;5020980;28;20207;-81
2021/12/15 13:33:00;;;;;;;23.03;17.30;;;;;;;;;;5023350;28;20248;-80
2021/12/15 13:35:28;;;;;;;22.77;15.27;;;;;;;;;;5027851;28;20596;-81
2021/12/15 13:37:57;;;;;;;22.47;17.67;;;;;;;;;;5022265;28;20284;-82
2021/12/15 13:40:43;;;;;;;20.97;14.33;;;;;;;;;;5021139;28;20243;-81
2021/12/15 13:43:25;;;;;;;22.73;15.93;;;;;;;;;;5023116;28;20232;-81
2021/12/15 13:45:54;;;;;;;24.23;15.40;;;;;;;;;;5021709;28;20770;-81
2021/12/15 13:48:47;;;;;;;23.17;15.87;;;;;;;;;;5017317;28;20283;-81
2021/12/15 13:51:14;;;;;;;21.57;15.40;;;;;;;;;;5017580;28;20288;-81
2021/12/15 13:53:41;;;;;;;22.53;16.37;;;;;;;;;;5024103;28;20208;-81
2021/12/15 13:56:08;;;;;;;21.77;15.33;;;;;;;;;;5029148;28;20310;-81
2021/12/15 13:58:35;;;;;;;23.70;16.77;;;;;;;;;;5021715;28;20288;-80
2021/12/15 14:01:06;;;;;;;26.27;17.40;;;;;;;;;;5017766;28;20318;-80
2021/12/15 14:03:40;;;;;;;23.00;16.83;;;;;;;;;;5024135;28;20290;-80
2021/12/15 14:06:11;;;;;;;24.43;17.20;;;;;;;;;;5026282;28;20310;-80
2021/12/15 14:08:40;;;;;;;23.00;16.57;;;;;;;;;;5029940;28;20212;-81
2021/12/15 14:11:20;;;;;;;25.60;15.87;;;;;;;;;;5024819;28;20252;-80
2021/12/15 14:13:52;;;;;;;22.33;14.40;;;;;;;;;;5023619;28;20204;-81
2021/12/15 14:16:47;;;;;;;23.53;16.23;;;;;;;;;;5028439;28;20282;-81
2021/12/15 14:19:17;;;;;;;25.27;17.13;;;;;;;;;;4940090;29;20199;-82
2021/12/15 14:21:47;;;;;;;23.00;16.10;;;;;;;;;;4945920;29;20647;-80
2021/12/15 14:24:15;;;;;;;23.27;16.17;;;;;;;;;;4942231;29;20205;-81
2021/12/15 14:26:43;;;;;;;22.50;16.20;;;;;;;;;;4951254;29;20214;-82
2021/12/15 14:29:16;;;;;;;24.40;16.83;;;;;;;;;;4947708;29;20628;-84
2021/12/15 14:31:44;;;;;;;25.70;18.53;;;;;;;;;;4949025;28;20231;-83
2021/12/15 14:34:13;;;;;;;22.23;15.67;;;;;;;;;;4947006;29;20299;-84
2021/12/15 14:36:42;;;;;;;23.47;17.30;;;;;;;;;;4938193;29;20786;-84
2021/12/15 14:39:10;;;;;;;20.90;14.77;;;;;;;;;;4940778;29;20584;-83
2021/12/15 14:41:38;;;;;;;19.17;14.80;;;;;;;;;;4944083;28;20314;-84
2021/12/15 14:44:09;;;;;;;22.53;16.03;;;;;;;;;;4946537;29;20734;-83
2021/12/15 14:46:37;;;;;;;26.30;20.00;;;;;;;;;;4946217;29;20258;-83
2021/12/15 14:49:07;;;;;;;20.90;15.13;;;;;;;;;;4943191;29;20291;-83
2021/12/15 14:51:35;;;;;;;21.13;14.70;;;;;;;;;;4945917;29;20286;-84
2021/12/15 14:54:05;;;;;;;19.97;14.30;;;;;;;;;;4960164;28;20246;-82
2021/12/15 14:56:47;;;;;;;24.47;18.10;;;;;;;;;;5016129;28;20715;-84
2021/12/15 14:59:15;;;;;;;21.33;16.10;;;;;;;;;;5026262;28;20214;-83
2021/12/15 15:01:42;;;;;;;19.53;14.03;;;;;;;;;;5021304;28;20225;-83
2021/12/15 15:04:12;;;;;;;16.90;11.97;;;;;;;;;;5021495;28;20636;-83
2021/12/15 15:06:39;;;;;;;19.90;13.30;;;;;;;;;;5023805;28;20623;-83
2021/12/15 15:09:12;;;;;;;21.60;15.90;;;;;;;;;;5024982;28;20221;-81
2021/12/15 15:11:48;;;;;;;21.73;15.87;;;;;;;;;;5031216;28;20208;-83
2021/12/15 15:14:15;;;;;;;19.83;14.10;;;;;;;;;;5025847;28;20223;-83
2021/12/15 15:16:43;;;;;;;20.97;16.33;;;;;;;;;;5029025;28;20293;-83
2021/12/15 15:19:16;;;;;;;23.67;17.33;;;;;;;;;;5025843;28;20287;-83
2021/12/15 15:21:43;;;;;;;20.10;15.67;;;;;;;;;;5021469;28;20231;-82
2021/12/15 15:24:23;;;;;;;19.90;14.67;;;;;;;;;;5025812;28;20300;-84
2021/12/15 15:26:54;;;;;;;20.90;17.17;;;;;;;;;;5023576;28;20242;-83
2021/12/15 15:29:29;;;;;;;21.70;16.93;;;;;;;;;;5028381;28;20299;-83
2021/12/15 15:31:56;;;;;;;19.70;14.20;;;;;;;;;;5027238;28;20287;-83
2021/12/15 15:34:26;;;;;;;20.57;14.43;;;;;;;;;;5021961;28;20199;-83
2021/12/15 15:36:53;;;;;;;18.77;13.97;;;;;;;;;;5027550;28;20205;-83
2021/12/15 15:39:22;;;;;;;21.97;16.87;;;;;;;;;;5020072;28;20224;-83
2021/12/15 15:41:50;;;;;;;24.93;18.53;;;;;;;;;;5024215;28;20279;-81
2021/12/15 15:44:18;;;;;;;22.40;15.87;;;;;;;;;;5023219;28;20292;-82